sensor_id;sensor_type;location;lat;lon;timestamp;temperature;humidity
65826;DHT22;52586;-43.152;172.732;2023-02-26T00:02:04;21.10;51.90
65826;DHT22;52586;-43.152;172.732;2023-02-26T00:04:37;21.10;51.80
65826;DHT22;52586;-43.152;172.732;2023-02-26T00:07:08;21.20;51.90
65826;DHT22;52586;-43.152;172.732;2023-02-26T00:09:38;21.20;51.90
65826;DHT22;52586;-43.152;172.732;2023-02-26T00:12:11;21.20;51.90
65826;DHT22;52586;-43.152;172.732;2023-02-26T00:14:44;21.20;51.90
65826;DHT22;52586;-43.152;172.732;2023-02-26T00:17:38;21.20;51.90
65826;DHT22;52586;-43.152;172.732;2023-02-26T00:20:12;21.20;51.90
65826;DHT22;52586;-43.152;172.732;2023-02-26T00:22:44;21.20;51.80
65826;DHT22;52586;-43.152;172.732;2023-02-26T00:25:14;21.20;51.80
65826;DHT22;52586;-43.152;172.732;2023-02-26T00:27:45;21.20;51.80
65826;DHT22;52586;-43.152;172.732;2023-02-26T00:30:19;21.30;51.80
65826;DHT22;52586;-43.152;172.732;2023-02-26T00:32:50;21.20;51.90
65826;DHT22;52586;-43.152;172.732;2023-02-26T00:35:21;21.30;51.90
65826;DHT22;52586;-43.152;172.732;2023-02-26T00:38:02;21.30;51.90
65826;DHT22;52586;-43.152;172.732;2023-02-26T00:40:40;21.30;51.90
65826;DHT22;52586;-43.152;172.732;2023-02-26T00:43:15;21.30;51.90
65826;DHT22;52586;-43.152;172.732;2023-02-26T00:45:54;21.30;51.90
65826;DHT22;52586;-43.152;172.732;2023-02-26T00:48:46;21.30;51.90
65826;DHT22;52586;-43.152;172.732;2023-02-26T00:51:26;21.30;51.90
65826;DHT22;52586;-43.152;172.732;2023-02-26T00:54:06;21.30;51.90
65826;DHT22;52586;-43.152;172.732;2023-02-26T00:56:38;21.40;51.90
65826;DHT22;52586;-43.152;172.732;2023-02-26T00:59:09;21.40;51.90
65826;DHT22;52586;-43.152;172.732;2023-02-26T01:01:42;21.40;51.90
65826;DHT22;52586;-43.152;172.732;2023-02-26T01:04:14;21.40;51.90
65826;DHT22;52586;-43.152;172.732;2023-02-26T01:06:46;21.40;51.90
65826;DHT22;52586;-43.152;172.732;2023-02-26T01:09:23;21.40;51.80
65826;DHT22;52586;-43.152;172.732;2023-02-26T01:11:55;21.40;51.90
65826;DHT22;52586;-43.152;172.732;2023-02-26T01:14:28;21.40;51.90
65826;DHT22;52586;-43.152;172.732;2023-02-26T01:17:05;21.50;52.00
65826;DHT22;52586;-43.152;172.732;2023-02-26T01:19:43;21.50;52.00
65826;DHT22;52586;-43.152;172.732;2023-02-26T01:22:18;21.50;52.00
65826;DHT22;52586;-43.152;172.732;2023-02-26T01:24:55;21.50;52.00
65826;DHT22;52586;-43.152;172.732;2023-02-26T01:27:29;21.50;52.00
65826;DHT22;52586;-43.152;172.732;2023-02-26T01:30:00;21.50;52.00
65826;DHT22;52586;-43.152;172.732;2023-02-26T01:32:42;21.60;52.00
65826;DHT22;52586;-43.152;172.732;2023-02-26T01:35:23;21.50;52.00
65826;DHT22;52586;-43.152;172.732;2023-02-26T01:38:03;21.60;52.00
65826;DHT22;52586;-43.152;172.732;2023-02-26T01:44:09;21.60;52.00
65826;DHT22;52586;-43.152;172.732;2023-02-26T01:47:00;21.60;51.90
65826;DHT22;52586;-43.152;172.732;2023-02-26T01:49:34;21.60;52.00
65826;DHT22;52586;-43.152;172.732;2023-02-26T01:52:06;21.60;52.10
65826;DHT22;52586;-43.152;172.732;2023-02-26T01:54:38;21.70;52.30
65826;DHT22;52586;-43.152;172.732;2023-02-26T01:57:10;21.70;52.30
65826;DHT22;52586;-43.152;172.732;2023-02-26T01:59:43;21.70;52.40
65826;DHT22;52586;-43.152;172.732;2023-02-26T02:02:17;21.70;52.40
65826;DHT22;52586;-43.152;172.732;2023-02-26T02:04:50;21.70;52.50
65826;DHT22;52586;-43.152;172.732;2023-02-26T02:07:21;21.70;52.40
65826;DHT22;52586;-43.152;172.732;2023-02-26T02:09:51;21.80;52.40
65826;DHT22;52586;-43.152;172.732;2023-02-26T02:12:28;21.80;52.30
65826;DHT22;52586;-43.152;172.732;2023-02-26T02:15:08;21.80;52.30
65826;DHT22;52586;-43.152;172.732;2023-02-26T02:17:48;21.80;52.30
65826;DHT22;52586;-43.152;172.732;2023-02-26T02:21:01;21.80;52.30
65826;DHT22;52586;-43.152;172.732;2023-02-26T02:23:41;21.80;52.30
65826;DHT22;52586;-43.152;172.732;2023-02-26T02:29:39;21.90;52.40
65826;DHT22;52586;-43.152;172.732;2023-02-26T02:32:20;21.90;52.40
65826;DHT22;52586;-43.152;172.732;2023-02-26T02:34:53;21.90;52.50
65826;DHT22;52586;-43.152;172.732;2023-02-26T02:37:35;21.90;52.50
65826;DHT22;52586;-43.152;172.732;2023-02-26T02:40:08;21.90;52.50
65826;DHT22;52586;-43.152;172.732;2023-02-26T02:42:43;21.90;52.60
65826;DHT22;52586;-43.152;172.732;2023-02-26T02:45:18;21.90;52.60
65826;DHT22;52586;-43.152;172.732;2023-02-26T02:47:56;21.90;52.60
65826;DHT22;52586;-43.152;172.732;2023-02-26T02:50:33;21.90;52.60
65826;DHT22;52586;-43.152;172.732;2023-02-26T02:53:07;22.00;52.60
65826;DHT22;52586;-43.152;172.732;2023-02-26T02:55:42;22.00;52.50
65826;DHT22;52586;-43.152;172.732;2023-02-26T02:58:16;22.00;52.50
65826;DHT22;52586;-43.152;172.732;2023-02-26T03:00:49;22.00;52.50
65826;DHT22;52586;-43.152;172.732;2023-02-26T03:03:25;22.00;52.50
65826;DHT22;52586;-43.152;172.732;2023-02-26T03:05:57;22.00;52.50
65826;DHT22;52586;-43.152;172.732;2023-02-26T03:08:29;22.00;52.50
65826;DHT22;52586;-43.152;172.732;2023-02-26T03:11:01;22.00;52.60
65826;DHT22;52586;-43.152;172.732;2023-02-26T03:13:32;22.00;52.60
65826;DHT22;52586;-43.152;172.732;2023-02-26T03:16:12;22.10;52.70
65826;DHT22;52586;-43.152;172.732;2023-02-26T03:18:54;22.10;52.80
65826;DHT22;52586;-43.152;172.732;2023-02-26T03:21:32;22.10;52.80
65826;DHT22;52586;-43.152;172.732;2023-02-26T03:24:07;22.10;52.80
65826;DHT22;52586;-43.152;172.732;2023-02-26T03:26:45;22.10;52.80
65826;DHT22;52586;-43.152;172.732;2023-02-26T03:29:19;22.10;52.70
65826;DHT22;52586;-43.152;172.732;2023-02-26T03:31:55;22.10;52.70
65826;DHT22;52586;-43.152;172.732;2023-02-26T03:34:34;22.10;52.70
65826;DHT22;52586;-43.152;172.732;2023-02-26T03:37:10;22.20;52.80
65826;DHT22;52586;-43.152;172.732;2023-02-26T03:39:42;22.10;52.70
65826;DHT22;52586;-43.152;172.732;2023-02-26T03:42:19;22.20;52.70
65826;DHT22;52586;-43.152;172.732;2023-02-26T03:44:53;22.20;52.70
65826;DHT22;52586;-43.152;172.732;2023-02-26T03:47:25;22.20;52.80
65826;DHT22;52586;-43.152;172.732;2023-02-26T03:50:05;22.20;52.80
65826;DHT22;52586;-43.152;172.732;2023-02-26T03:52:39;22.20;52.80
65826;DHT22;52586;-43.152;172.732;2023-02-26T03:55:12;22.30;52.90
65826;DHT22;52586;-43.152;172.732;2023-02-26T03:57:45;22.30;52.90
65826;DHT22;52586;-43.152;172.732;2023-02-26T04:00:17;22.30;53.00
65826;DHT22;52586;-43.152;172.732;2023-02-26T04:02:54;22.30;52.90
65826;DHT22;52586;-43.152;172.732;2023-02-26T04:05:29;22.30;52.90
65826;DHT22;52586;-43.152;172.732;2023-02-26T04:08:01;22.30;52.90
65826;DHT22;52586;-43.152;172.732;2023-02-26T04:10:35;22.40;52.90
65826;DHT22;52586;-43.152;172.732;2023-02-26T04:13:05;22.40;52.90
65826;DHT22;52586;-43.152;172.732;2023-02-26T04:15:36;22.40;52.80
65826;DHT22;52586;-43.152;172.732;2023-02-26T04:18:07;22.40;52.80
65826;DHT22;52586;-43.152;172.732;2023-02-26T04:20:39;22.50;52.80
65826;DHT22;52586;-43.152;172.732;2023-02-26T04:23:10;22.50;53.10
65826;DHT22;52586;-43.152;172.732;2023-02-26T04:25:41;22.50;52.90
65826;DHT22;52586;-43.152;172.732;2023-02-26T04:28:12;22.50;52.90
65826;DHT22;52586;-43.152;172.732;2023-02-26T04:30:42;22.50;52.90
65826;DHT22;52586;-43.152;172.732;2023-02-26T04:33:14;22.50;52.90
65826;DHT22;52586;-43.152;172.732;2023-02-26T04:35:46;22.60;53.00
65826;DHT22;52586;-43.152;172.732;2023-02-26T04:38:17;22.60;53.00
65826;DHT22;52586;-43.152;172.732;2023-02-26T04:40:49;22.60;53.00
65826;DHT22;52586;-43.152;172.732;2023-02-26T04:43:20;22.70;53.00
65826;DHT22;52586;-43.152;172.732;2023-02-26T04:45:50;22.70;52.90
65826;DHT22;52586;-43.152;172.732;2023-02-26T04:48:21;22.80;53.00
65826;DHT22;52586;-43.152;172.732;2023-02-26T04:50:54;22.80;53.00
65826;DHT22;52586;-43.152;172.732;2023-02-26T04:53:24;22.80;52.90
65826;DHT22;52586;-43.152;172.732;2023-02-26T04:55:55;22.80;52.80
65826;DHT22;52586;-43.152;172.732;2023-02-26T04:58:26;22.80;52.80
65826;DHT22;52586;-43.152;172.732;2023-02-26T05:00:57;22.80;52.80
65826;DHT22;52586;-43.152;172.732;2023-02-26T05:03:28;22.90;52.80
65826;DHT22;52586;-43.152;172.732;2023-02-26T05:06:00;22.90;52.90
65826;DHT22;52586;-43.152;172.732;2023-02-26T05:08:31;22.90;52.90
65826;DHT22;52586;-43.152;172.732;2023-02-26T05:11:02;22.90;52.90
65826;DHT22;52586;-43.152;172.732;2023-02-26T05:13:32;23.00;52.90
65826;DHT22;52586;-43.152;172.732;2023-02-26T05:16:03;23.00;52.90
65826;DHT22;52586;-43.152;172.732;2023-02-26T05:18:34;23.00;52.90
65826;DHT22;52586;-43.152;172.732;2023-02-26T05:21:07;23.00;52.90
65826;DHT22;52586;-43.152;172.732;2023-02-26T05:23:38;23.00;52.90
65826;DHT22;52586;-43.152;172.732;2023-02-26T05:26:09;23.10;52.80
65826;DHT22;52586;-43.152;172.732;2023-02-26T05:28:39;23.10;52.80
65826;DHT22;52586;-43.152;172.732;2023-02-26T05:31:12;23.10;52.80
65826;DHT22;52586;-43.152;172.732;2023-02-26T05:33:43;23.20;52.80
65826;DHT22;52586;-43.152;172.732;2023-02-26T05:36:16;23.20;52.80
65826;DHT22;52586;-43.152;172.732;2023-02-26T05:38:46;23.20;52.80
65826;DHT22;52586;-43.152;172.732;2023-02-26T05:41:17;23.20;52.90
65826;DHT22;52586;-43.152;172.732;2023-02-26T05:43:47;23.20;52.90
65826;DHT22;52586;-43.152;172.732;2023-02-26T05:46:18;23.30;52.90
65826;DHT22;52586;-43.152;172.732;2023-02-26T05:48:49;23.30;53.00
65826;DHT22;52586;-43.152;172.732;2023-02-26T05:51:22;23.30;53.00
65826;DHT22;52586;-43.152;172.732;2023-02-26T05:53:52;23.30;53.00
65826;DHT22;52586;-43.152;172.732;2023-02-26T05:56:23;23.40;53.00
65826;DHT22;52586;-43.152;172.732;2023-02-26T05:58:54;23.40;53.00
65826;DHT22;52586;-43.152;172.732;2023-02-26T06:01:25;23.40;53.00
65826;DHT22;52586;-43.152;172.732;2023-02-26T06:03:55;23.40;53.00
65826;DHT22;52586;-43.152;172.732;2023-02-26T06:06:28;23.40;53.00
65826;DHT22;52586;-43.152;172.732;2023-02-26T06:08:59;23.40;52.90
65826;DHT22;52586;-43.152;172.732;2023-02-26T06:11:30;23.50;53.00
65826;DHT22;52586;-43.152;172.732;2023-02-26T06:14:01;23.50;52.90
65826;DHT22;52586;-43.152;172.732;2023-02-26T06:16:32;23.50;52.90
65826;DHT22;52586;-43.152;172.732;2023-02-26T06:19:03;23.50;53.00
65826;DHT22;52586;-43.152;172.732;2023-02-26T06:21:35;23.50;52.90
65826;DHT22;52586;-43.152;172.732;2023-02-26T06:24:07;23.50;52.90
65826;DHT22;52586;-43.152;172.732;2023-02-26T06:26:37;23.50;52.90
65826;DHT22;52586;-43.152;172.732;2023-02-26T06:29:08;23.50;52.90
65826;DHT22;52586;-43.152;172.732;2023-02-26T06:31:39;23.50;52.90
65826;DHT22;52586;-43.152;172.732;2023-02-26T06:34:09;23.50;53.00
65826;DHT22;52586;-43.152;172.732;2023-02-26T06:36:42;23.50;53.00
65826;DHT22;52586;-43.152;172.732;2023-02-26T06:39:12;23.50;53.00
65826;DHT22;52586;-43.152;172.732;2023-02-26T06:41:43;23.60;53.00
65826;DHT22;52586;-43.152;172.732;2023-02-26T06:44:14;23.60;53.00
65826;DHT22;52586;-43.152;172.732;2023-02-26T06:46:44;23.60;52.90
65826;DHT22;52586;-43.152;172.732;2023-02-26T06:49:15;23.60;52.90
65826;DHT22;52586;-43.152;172.732;2023-02-26T06:51:48;23.60;52.80
65826;DHT22;52586;-43.152;172.732;2023-02-26T06:54:18;23.60;52.80
65826;DHT22;52586;-43.152;172.732;2023-02-26T06:56:49;23.60;52.70
65826;DHT22;52586;-43.152;172.732;2023-02-26T06:59:20;23.60;52.80
65826;DHT22;52586;-43.152;172.732;2023-02-26T07:01:50;23.60;52.70
65826;DHT22;52586;-43.152;172.732;2023-02-26T07:04:21;23.60;52.70
65826;DHT22;52586;-43.152;172.732;2023-02-26T07:06:54;23.60;52.80
65826;DHT22;52586;-43.152;172.732;2023-02-26T07:09:24;23.60;52.80
65826;DHT22;52586;-43.152;172.732;2023-02-26T07:11:56;23.60;52.80
65826;DHT22;52586;-43.152;172.732;2023-02-26T07:14:29;23.60;52.80
65826;DHT22;52586;-43.152;172.732;2023-02-26T07:17:00;23.60;52.80
65826;DHT22;52586;-43.152;172.732;2023-02-26T07:19:31;23.60;52.80
65826;DHT22;52586;-43.152;172.732;2023-02-26T07:22:04;23.60;52.90
65826;DHT22;52586;-43.152;172.732;2023-02-26T07:24:34;23.60;52.80
65826;DHT22;52586;-43.152;172.732;2023-02-26T07:27:05;23.60;52.80
65826;DHT22;52586;-43.152;172.732;2023-02-26T07:29:36;23.60;53.40
65826;DHT22;52586;-43.152;172.732;2023-02-26T07:32:07;23.60;52.70
65826;DHT22;52586;-43.152;172.732;2023-02-26T07:34:38;23.60;52.70
65826;DHT22;52586;-43.152;172.732;2023-02-26T07:37:10;23.50;52.60
65826;DHT22;52586;-43.152;172.732;2023-02-26T07:39:41;23.60;52.60
65826;DHT22;52586;-43.152;172.732;2023-02-26T07:42:12;23.50;52.60
65826;DHT22;52586;-43.152;172.732;2023-02-26T07:44:42;23.50;52.60
65826;DHT22;52586;-43.152;172.732;2023-02-26T07:47:13;23.50;52.60
65826;DHT22;52586;-43.152;172.732;2023-02-26T07:49:44;23.50;52.70
65826;DHT22;52586;-43.152;172.732;2023-02-26T07:52:17;23.50;52.70
65826;DHT22;52586;-43.152;172.732;2023-02-26T07:54:47;23.50;52.70
65826;DHT22;52586;-43.152;172.732;2023-02-26T07:57:19;23.50;52.70
65826;DHT22;52586;-43.152;172.732;2023-02-26T07:59:49;23.50;52.80
65826;DHT22;52586;-43.152;172.732;2023-02-26T08:02:20;23.50;52.70
65826;DHT22;52586;-43.152;172.732;2023-02-26T08:04:52;23.50;52.70
65826;DHT22;52586;-43.152;172.732;2023-02-26T08:07:25;23.50;52.70
65826;DHT22;52586;-43.152;172.732;2023-02-26T08:09:55;23.50;52.70
65826;DHT22;52586;-43.152;172.732;2023-02-26T08:12:26;23.50;52.60
65826;DHT22;52586;-43.152;172.732;2023-02-26T08:14:57;23.50;52.60
65826;DHT22;52586;-43.152;172.732;2023-02-26T08:17:28;23.50;52.50
65826;DHT22;52586;-43.152;172.732;2023-02-26T08:19:58;23.50;52.50
65826;DHT22;52586;-43.152;172.732;2023-02-26T08:22:31;23.40;52.50
65826;DHT22;52586;-43.152;172.732;2023-02-26T08:25:02;23.50;52.50
65826;DHT22;52586;-43.152;172.732;2023-02-26T08:27:32;23.40;52.50
65826;DHT22;52586;-43.152;172.732;2023-02-26T08:30:03;23.40;52.50
65826;DHT22;52586;-43.152;172.732;2023-02-26T08:32:35;23.40;53.10
65826;DHT22;52586;-43.152;172.732;2023-02-26T08:35:06;23.40;52.50
65826;DHT22;52586;-43.152;172.732;2023-02-26T08:37:39;23.40;52.50
65826;DHT22;52586;-43.152;172.732;2023-02-26T08:40:12;23.40;52.50
65826;DHT22;52586;-43.152;172.732;2023-02-26T08:42:43;23.40;52.50
65826;DHT22;52586;-43.152;172.732;2023-02-26T08:45:14;23.40;52.50
65826;DHT22;52586;-43.152;172.732;2023-02-26T08:47:45;23.40;52.50
65826;DHT22;52586;-43.152;172.732;2023-02-26T08:50:16;23.40;52.50
65826;DHT22;52586;-43.152;172.732;2023-02-26T08:52:48;23.40;53.10
65826;DHT22;52586;-43.152;172.732;2023-02-26T08:55:19;23.40;52.50
65826;DHT22;52586;-43.152;172.732;2023-02-26T08:57:50;23.30;52.50
65826;DHT22;52586;-43.152;172.732;2023-02-26T09:00:21;23.30;52.40
65826;DHT22;52586;-43.152;172.732;2023-02-26T09:02:52;23.30;52.50
65826;DHT22;52586;-43.152;172.732;2023-02-26T09:05:22;23.30;52.50
65826;DHT22;52586;-43.152;172.732;2023-02-26T09:07:55;23.30;52.50
65826;DHT22;52586;-43.152;172.732;2023-02-26T09:10:26;23.30;52.40
65826;DHT22;52586;-43.152;172.732;2023-02-26T09:12:57;23.30;52.50
65826;DHT22;52586;-43.152;172.732;2023-02-26T09:15:27;23.30;53.00
65826;DHT22;52586;-43.152;172.732;2023-02-26T09:17:58;23.30;52.50
65826;DHT22;52586;-43.152;172.732;2023-02-26T09:20:29;23.30;53.00
65826;DHT22;52586;-43.152;172.732;2023-02-26T09:23:01;23.30;52.40
65826;DHT22;52586;-43.152;172.732;2023-02-26T09:25:32;23.30;52.50
65826;DHT22;52586;-43.152;172.732;2023-02-26T09:28:03;23.30;52.40
65826;DHT22;52586;-43.152;172.732;2023-02-26T09:30:34;23.30;52.50
65826;DHT22;52586;-43.152;172.732;2023-02-26T09:33:04;23.20;52.40
65826;DHT22;52586;-43.152;172.732;2023-02-26T09:35:36;23.20;52.40
65826;DHT22;52586;-43.152;172.732;2023-02-26T09:38:08;23.20;52.50
65826;DHT22;52586;-43.152;172.732;2023-02-26T09:40:43;23.20;52.40
65826;DHT22;52586;-43.152;172.732;2023-02-26T09:43:43;23.20;52.40
65826;DHT22;52586;-43.152;172.732;2023-02-26T09:46:23;23.20;52.40
65826;DHT22;52586;-43.152;172.732;2023-02-26T09:49:04;23.20;52.40
65826;DHT22;52586;-43.152;172.732;2023-02-26T09:51:36;23.10;52.30
65826;DHT22;52586;-43.152;172.732;2023-02-26T09:54:15;23.20;52.40
65826;DHT22;52586;-43.152;172.732;2023-02-26T09:56:48;23.10;52.40
65826;DHT22;52586;-43.152;172.732;2023-02-26T09:59:19;23.10;52.40
65826;DHT22;52586;-43.152;172.732;2023-02-26T10:01:57;23.10;52.40
65826;DHT22;52586;-43.152;172.732;2023-02-26T10:04:42;23.20;52.40
65826;DHT22;52586;-43.152;172.732;2023-02-26T10:07:24;23.20;52.50
65826;DHT22;52586;-43.152;172.732;2023-02-26T10:10:15;23.20;52.40
65826;DHT22;52586;-43.152;172.732;2023-02-26T10:12:49;23.10;52.40
65826;DHT22;52586;-43.152;172.732;2023-02-26T10:15:23;23.10;52.40
65826;DHT22;52586;-43.152;172.732;2023-02-26T10:18:03;23.10;52.40
65826;DHT22;52586;-43.152;172.732;2023-02-26T10:20:37;23.10;52.40
65826;DHT22;52586;-43.152;172.732;2023-02-26T10:23:18;23.00;52.40
65826;DHT22;52586;-43.152;172.732;2023-02-26T10:26:01;23.00;52.40
65826;DHT22;52586;-43.152;172.732;2023-02-26T10:28:44;23.00;52.50
65826;DHT22;52586;-43.152;172.732;2023-02-26T10:31:23;23.00;52.40
65826;DHT22;52586;-43.152;172.732;2023-02-26T10:34:06;23.00;52.40
65826;DHT22;52586;-43.152;172.732;2023-02-26T10:36:44;23.00;52.50
65826;DHT22;52586;-43.152;172.732;2023-02-26T10:39:26;23.00;52.50
65826;DHT22;52586;-43.152;172.732;2023-02-26T10:42:04;23.00;52.50
65826;DHT22;52586;-43.152;172.732;2023-02-26T10:44:43;23.00;52.50
65826;DHT22;52586;-43.152;172.732;2023-02-26T10:47:20;23.00;53.00
65826;DHT22;52586;-43.152;172.732;2023-02-26T10:49:54;23.00;52.50
65826;DHT22;52586;-43.152;172.732;2023-02-26T10:52:27;22.90;52.40
65826;DHT22;52586;-43.152;172.732;2023-02-26T10:55:21;22.90;52.40
65826;DHT22;52586;-43.152;172.732;2023-02-26T10:58:01;22.90;52.50
65826;DHT22;52586;-43.152;172.732;2023-02-26T11:00:33;22.90;52.50
65826;DHT22;52586;-43.152;172.732;2023-02-26T11:03:05;22.90;52.50
65826;DHT22;52586;-43.152;172.732;2023-02-26T11:05:36;22.90;52.50
65826;DHT22;52586;-43.152;172.732;2023-02-26T11:08:12;22.90;52.50
65826;DHT22;52586;-43.152;172.732;2023-02-26T11:10:49;22.90;52.50
65826;DHT22;52586;-43.152;172.732;2023-02-26T11:13:24;22.90;52.50
65826;DHT22;52586;-43.152;172.732;2023-02-26T11:15:56;22.80;52.50
65826;DHT22;52586;-43.152;172.732;2023-02-26T11:18:30;22.90;52.50
65826;DHT22;52586;-43.152;172.732;2023-02-26T11:21:05;22.80;52.50
65826;DHT22;52586;-43.152;172.732;2023-02-26T11:23:36;22.80;52.50
65826;DHT22;52586;-43.152;172.732;2023-02-26T11:26:07;22.90;52.50
65826;DHT22;52586;-43.152;172.732;2023-02-26T11:28:45;22.80;52.50
65826;DHT22;52586;-43.152;172.732;2023-02-26T11:31:17;22.80;52.50
65826;DHT22;52586;-43.152;172.732;2023-02-26T11:33:50;22.80;52.50
65826;DHT22;52586;-43.152;172.732;2023-02-26T11:36:24;22.80;52.50
65826;DHT22;52586;-43.152;172.732;2023-02-26T11:38:57;22.80;52.50
65826;DHT22;52586;-43.152;172.732;2023-02-26T11:41:30;22.80;52.60
65826;DHT22;52586;-43.152;172.732;2023-02-26T11:44:10;22.80;52.60
65826;DHT22;52586;-43.152;172.732;2023-02-26T11:46:44;22.80;52.60
65826;DHT22;52586;-43.152;172.732;2023-02-26T11:49:16;22.80;52.60
65826;DHT22;52586;-43.152;172.732;2023-02-26T11:52:06;22.70;52.60
65826;DHT22;52586;-43.152;172.732;2023-02-26T11:54:45;22.70;52.60
65826;DHT22;52586;-43.152;172.732;2023-02-26T11:57:17;22.70;52.50
65826;DHT22;52586;-43.152;172.732;2023-02-26T11:59:52;22.70;52.50
65826;DHT22;52586;-43.152;172.732;2023-02-26T12:02:25;22.70;52.60
65826;DHT22;52586;-43.152;172.732;2023-02-26T12:04:58;22.70;52.80
65826;DHT22;52586;-43.152;172.732;2023-02-26T12:07:30;22.70;52.60
65826;DHT22;52586;-43.152;172.732;2023-02-26T12:10:01;22.70;52.60
65826;DHT22;52586;-43.152;172.732;2023-02-26T12:12:46;22.70;52.60
65826;DHT22;52586;-43.152;172.732;2023-02-26T12:15:33;22.70;52.60
65826;DHT22;52586;-43.152;172.732;2023-02-26T12:18:31;22.60;52.60
65826;DHT22;52586;-43.152;172.732;2023-02-26T12:21:12;22.60;52.60
65826;DHT22;52586;-43.152;172.732;2023-02-26T12:24:01;22.60;52.60
65826;DHT22;52586;-43.152;172.732;2023-02-26T12:26:39;22.60;52.60
65826;DHT22;52586;-43.152;172.732;2023-02-26T12:32:38;22.60;52.60
65826;DHT22;52586;-43.152;172.732;2023-02-26T12:38:19;22.60;52.60
65826;DHT22;52586;-43.152;172.732;2023-02-26T12:41:09;22.60;52.60
65826;DHT22;52586;-43.152;172.732;2023-02-26T12:43:46;22.50;52.50
65826;DHT22;52586;-43.152;172.732;2023-02-26T12:46:34;22.60;52.60
65826;DHT22;52586;-43.152;172.732;2023-02-26T12:49:37;22.50;52.60
65826;DHT22;52586;-43.152;172.732;2023-02-26T12:55:18;22.50;52.50
65826;DHT22;52586;-43.152;172.732;2023-02-26T12:58:08;22.50;52.60
65826;DHT22;52586;-43.152;172.732;2023-02-26T13:00:53;22.50;52.60
65826;DHT22;52586;-43.152;172.732;2023-02-26T13:03:53;22.50;52.60
65826;DHT22;52586;-43.152;172.732;2023-02-26T13:09:49;22.40;52.60
65826;DHT22;52586;-43.152;172.732;2023-02-26T13:12:38;22.40;52.60
65826;DHT22;52586;-43.152;172.732;2023-02-26T13:18:20;22.40;52.70
65826;DHT22;52586;-43.152;172.732;2023-02-26T13:20:56;22.40;52.60
65826;DHT22;52586;-43.152;172.732;2023-02-26T13:23:32;22.40;52.60
65826;DHT22;52586;-43.152;172.732;2023-02-26T13:26:07;22.40;52.70
65826;DHT22;52586;-43.152;172.732;2023-02-26T13:28:41;22.30;52.60
65826;DHT22;52586;-43.152;172.732;2023-02-26T13:31:15;22.30;52.70
65826;DHT22;52586;-43.152;172.732;2023-02-26T13:33:49;22.30;52.60
65826;DHT22;52586;-43.152;172.732;2023-02-26T13:36:23;22.30;52.70
65826;DHT22;52586;-43.152;172.732;2023-02-26T13:39:07;22.30;52.70
65826;DHT22;52586;-43.152;172.732;2023-02-26T13:41:55;22.30;52.70
65826;DHT22;52586;-43.152;172.732;2023-02-26T13:44:32;22.20;52.60
65826;DHT22;52586;-43.152;172.732;2023-02-26T13:47:31;22.30;52.70
65826;DHT22;52586;-43.152;172.732;2023-02-26T13:50:26;22.20;52.60
65826;DHT22;52586;-43.152;172.732;2023-02-26T13:53:03;22.20;52.60
65826;DHT22;52586;-43.152;172.732;2023-02-26T13:55:44;22.20;52.60
65826;DHT22;52586;-43.152;172.732;2023-02-26T13:58:28;22.20;52.60
65826;DHT22;52586;-43.152;172.732;2023-02-26T14:01:08;22.20;52.60
65826;DHT22;52586;-43.152;172.732;2023-02-26T14:03:44;22.20;52.60
65826;DHT22;52586;-43.152;172.732;2023-02-26T14:06:37;22.20;52.60
65826;DHT22;52586;-43.152;172.732;2023-02-26T14:09:33;22.10;52.70
65826;DHT22;52586;-43.152;172.732;2023-02-26T14:12:24;22.10;52.60
65826;DHT22;52586;-43.152;172.732;2023-02-26T14:15:36;22.10;52.60
65826;DHT22;52586;-43.152;172.732;2023-02-26T14:18:25;22.10;52.60
65826;DHT22;52586;-43.152;172.732;2023-02-26T14:24:01;22.10;52.60
65826;DHT22;52586;-43.152;172.732;2023-02-26T14:26:34;22.00;52.60
65826;DHT22;52586;-43.152;172.732;2023-02-26T14:29:15;22.00;52.60
65826;DHT22;52586;-43.152;172.732;2023-02-26T14:32:04;22.00;52.60
65826;DHT22;52586;-43.152;172.732;2023-02-26T14:34:39;22.00;52.60
65826;DHT22;52586;-43.152;172.732;2023-02-26T14:37:14;22.00;53.20
65826;DHT22;52586;-43.152;172.732;2023-02-26T14:39:50;22.00;52.60
65826;DHT22;52586;-43.152;172.732;2023-02-26T14:42:28;21.90;52.60
65826;DHT22;52586;-43.152;172.732;2023-02-26T14:45:08;21.90;52.60
65826;DHT22;52586;-43.152;172.732;2023-02-26T14:47:42;21.90;52.60
65826;DHT22;52586;-43.152;172.732;2023-02-26T14:50:16;21.90;52.60
65826;DHT22;52586;-43.152;172.732;2023-02-26T14:53:22;21.90;52.60
65826;DHT22;52586;-43.152;172.732;2023-02-26T14:56:06;21.80;52.60
65826;DHT22;52586;-43.152;172.732;2023-02-26T14:58:50;21.80;52.50
65826;DHT22;52586;-43.152;172.732;2023-02-26T15:01:43;21.80;52.60
65826;DHT22;52586;-43.152;172.732;2023-02-26T15:04:22;21.80;52.60
65826;DHT22;52586;-43.152;172.732;2023-02-26T15:07:10;21.80;52.60
65826;DHT22;52586;-43.152;172.732;2023-02-26T15:09:54;21.80;52.60
65826;DHT22;52586;-43.152;172.732;2023-02-26T15:12:38;21.80;52.60
65826;DHT22;52586;-43.152;172.732;2023-02-26T15:15:36;21.70;52.50
65826;DHT22;52586;-43.152;172.732;2023-02-26T15:18:26;21.70;52.50
65826;DHT22;52586;-43.152;172.732;2023-02-26T15:21:05;21.70;52.60
65826;DHT22;52586;-43.152;172.732;2023-02-26T15:23:40;21.70;52.60
65826;DHT22;52586;-43.152;172.732;2023-02-26T15:26:17;21.70;52.60
65826;DHT22;52586;-43.152;172.732;2023-02-26T15:28:49;21.60;52.60
65826;DHT22;52586;-43.152;172.732;2023-02-26T15:31:26;21.60;52.60
65826;DHT22;52586;-43.152;172.732;2023-02-26T15:34:01;21.60;52.60
65826;DHT22;52586;-43.152;172.732;2023-02-26T15:36:32;21.60;52.60
65826;DHT22;52586;-43.152;172.732;2023-02-26T15:39:06;21.60;52.70
65826;DHT22;52586;-43.152;172.732;2023-02-26T15:41:39;21.60;52.70
65826;DHT22;52586;-43.152;172.732;2023-02-26T15:44:12;21.50;52.70
65826;DHT22;52586;-43.152;172.732;2023-02-26T15:46:44;21.50;52.60
65826;DHT22;52586;-43.152;172.732;2023-02-26T15:49:22;21.50;52.60
65826;DHT22;52586;-43.152;172.732;2023-02-26T15:51:56;21.50;52.60
65826;DHT22;52586;-43.152;172.732;2023-02-26T15:54:40;21.50;52.60
65826;DHT22;52586;-43.152;172.732;2023-02-26T15:57:12;21.50;52.60
65826;DHT22;52586;-43.152;172.732;2023-02-26T15:59:45;21.50;52.70
65826;DHT22;52586;-43.152;172.732;2023-02-26T16:02:18;21.50;52.60
65826;DHT22;52586;-43.152;172.732;2023-02-26T16:04:51;21.40;52.60